createdAt,value
2022-11-02T00:03:43.667Z,100927.72
2022-11-02T00:13:48.040Z,100929.75
2022-11-02T00:23:51.286Z,100927.16
2022-11-02T00:33:55.562Z,100931.78
2022-11-02T00:43:58.294Z,100928.84
2022-11-02T00:54:03.296Z,100922.78
2022-11-02T01:04:06.433Z,100936.06
2022-11-02T01:14:10.845Z,100946.25
2022-11-02T01:24:14.011Z,100944.78
2022-11-02T01:34:19.015Z,100945.13
2022-11-02T01:44:29.600Z,100942.53
2022-11-02T01:54:38.874Z,100943.72
2022-11-02T02:04:42.472Z,100954.41
2022-11-02T02:14:47.379Z,100955.34
2022-11-02T02:24:56.034Z,100949.28
2022-11-02T02:35:10.015Z,100945.31
2022-11-02T02:45:17.658Z,100944.69
2022-11-02T02:55:26.363Z,100954.03
2022-11-02T03:05:30.738Z,100946.25
2022-11-02T03:15:41.432Z,100950.44
2022-11-02T03:25:55.591Z,100962.75
2022-11-02T03:36:07.084Z,100978.50
2022-11-02T03:46:12.395Z,100985.66
2022-11-02T03:56:22.607Z,100994.59
2022-11-02T04:06:28.565Z,101004.13
2022-11-02T04:16:33.225Z,101025.59
2022-11-02T04:26:38.993Z,101037.88
2022-11-02T04:36:44.641Z,101036.28
2022-11-02T04:46:48.208Z,101054.34
2022-11-02T04:56:52.697Z,101071.56
2022-11-02T05:07:01.429Z,101084.75
2022-11-02T05:17:08.397Z,101086.53
2022-11-02T05:27:13.307Z,101097.13
2022-11-02T05:37:20.377Z,101101.28
2022-11-02T05:47:23.679Z,101096.38
2022-11-02T05:57:28.048Z,101108.66
2022-11-02T06:07:31.295Z,101130.88
2022-11-02T06:17:40.339Z,101147.28
2022-11-02T06:27:45.907Z,101167.03
2022-11-02T06:37:51.483Z,101182.50
2022-11-02T06:47:54.319Z,101203.84
2022-11-02T06:57:58.776Z,101218.69
2022-11-02T07:08:01.847Z,101237.66
2022-11-02T07:18:08.273Z,101247.66
2022-11-02T07:28:11.135Z,101263.00
2022-11-02T07:38:15.291Z,101271.25
2022-11-02T07:48:18.313Z,101285.16
2022-11-02T07:58:22.671Z,101297.72
2022-11-02T08:08:26.111Z,101309.63
2022-11-02T08:18:32.679Z,101327.44
2022-11-02T08:28:39.932Z,101337.56
2022-11-02T08:38:44.392Z,101341.03
2022-11-02T08:48:47.691Z,101340.25
2022-11-02T08:58:52.001Z,101355.69
2022-11-02T09:08:57.923Z,101366.81
2022-11-02T09:19:03.513Z,101390.19
2022-11-02T09:29:06.600Z,101399.94
2022-11-02T09:39:10.984Z,101388.63
2022-11-02T09:49:16.699Z,101402.69
2022-11-02T09:59:23.229Z,101401.53
2022-11-02T10:09:35.749Z,101416.28
2022-11-02T10:19:43.170Z,101411.56
2022-11-02T10:29:50.698Z,101404.50
2022-11-02T10:40:04.238Z,101408.38
2022-11-02T10:50:35.787Z,101410.22
2022-11-02T11:00:41.065Z,101424.59
2022-11-02T11:10:44.520Z,101406.63
2022-11-02T11:20:49.479Z,101398.59
2022-11-02T11:31:05.292Z,101402.38
2022-11-02T11:41:13.506Z,101404.50
2022-11-02T11:51:25.985Z,101387.84
2022-11-02T12:01:40.414Z,101393.38
2022-11-02T12:11:53.345Z,101372.09
2022-11-02T12:22:08.265Z,101362.66
2022-11-02T12:32:24.888Z,101364.00
2022-11-02T12:42:32.871Z,101347.59
2022-11-02T12:52:44.112Z,101336.34
2022-11-02T13:02:56.964Z,101326.66
2022-11-02T13:13:04.214Z,101338.38
2022-11-02T13:23:19.330Z,101328.38
2022-11-02T13:33:26.809Z,101325.50
2022-11-02T13:43:59.918Z,101317.41
2022-11-02T13:54:09.168Z,101311.28
2022-11-02T14:04:15.542Z,101314.38
2022-11-02T14:14:26.547Z,101315.84
2022-11-02T14:25:08.544Z,101304.38
2022-11-02T14:35:40.400Z,101307.66
2022-11-02T14:46:18.630Z,101311.47
2022-11-02T14:56:23.469Z,101300.81
2022-11-02T15:06:29.352Z,101289.28
2022-11-02T15:16:42.720Z,101278.25
2022-11-02T15:26:51.883Z,101273.16
2022-11-02T15:36:57.566Z,101267.09
2022-11-02T15:47:11.837Z,101273.44
2022-11-02T15:57:25.718Z,101275.47
2022-11-02T16:07:33.214Z,101288.75
2022-11-02T16:17:51.330Z,101274.47
2022-11-02T16:27:54.545Z,101270.00
2022-11-02T16:37:59.219Z,101271.41
2022-11-02T16:48:04.250Z,101269.94
2022-11-02T16:58:15.588Z,101268.69
2022-11-02T17:08:28.965Z,101270.19
2022-11-02T17:18:33.099Z,101272.19
2022-11-02T17:28:45.288Z,101274.53
2022-11-02T17:38:49.683Z,101274.88
2022-11-02T17:48:52.801Z,101265.63
2022-11-02T17:58:57.247Z,101254.53
2022-11-02T18:09:12.077Z,101257.69
2022-11-02T18:19:16.830Z,101250.94
2022-11-02T18:29:19.708Z,101246.13
2022-11-02T18:39:24.415Z,101226.34
2022-11-02T18:49:27.336Z,101220.19
2022-11-02T18:59:31.627Z,101215.56
2022-11-02T19:09:35.998Z,101198.38
2022-11-02T19:19:41.305Z,101187.69
2022-11-02T19:29:44.824Z,101191.50
2022-11-02T19:39:49.427Z,101187.13
2022-11-02T19:49:53.344Z,101179.75
2022-11-02T19:59:57.881Z,101152.28
2022-11-02T20:10:00.645Z,101139.53
2022-11-02T20:20:05.497Z,101131.47
2022-11-02T20:30:09.927Z,101137.19
2022-11-02T20:40:16.018Z,101126.13
2022-11-02T20:50:23.153Z,101120.25
2022-11-02T21:00:30.235Z,101111.59
2022-11-02T21:10:33.288Z,101106.94
2022-11-02T21:20:37.628Z,101086.06
2022-11-02T21:30:41.326Z,101080.53
2022-11-02T21:40:47.281Z,101067.75
2022-11-02T21:50:59.916Z,101070.72
2022-11-02T22:01:24.536Z,101069.09
2022-11-02T22:11:28.642Z,101044.25
2022-11-02T22:21:34.935Z,101026.94
2022-11-02T22:31:39.631Z,101022.94
2022-11-02T22:41:45.221Z,101012.00
2022-11-02T22:51:49.842Z,101000.00
2022-11-02T23:01:54.075Z,100983.84
2022-11-02T23:11:56.905Z,100971.91
2022-11-02T23:22:20.151Z,100960.69
2022-11-02T23:32:28.858Z,100950.13
2022-11-02T23:42:33.540Z,100927.31
2022-11-02T23:52:54.607Z,100933.66
